RYR61LJ LEPA-LEZL
Flight info
| Callsign | RYR61LJ |
|---|---|
| Flight time | N/A |
| Altitude | 39000 |
| Route | EPAMA N733 VLC M985 MAMIS |
| Aircraft | B38M/M-SDE1FGHILORVWXY/HB1 |
Departure
| Time | N/A |
|---|---|
| Airport | Palma de Mallorca Airport (LEPA) |
Arrival
| Time | 2026-05-07 14:03 |
|---|---|
| Airport | Seville Airport (LEZL) |
| Time | Latitude | Longitude | Altitude | Speed | Heading |
|---|---|---|---|---|---|
| 2026-05-07 13:51 | 37.54909 | -5.35783 | 12909 ft | 273 kts | 235° |
| 2026-05-07 13:51 | 37.53859 | -5.37760 | 12610 ft | 271 kts | 235° |
| 2026-05-07 13:52 | 37.52811 | -5.39728 | 12315 ft | 269 kts | 235° |
| 2026-05-07 13:52 | 37.51761 | -5.41696 | 11827 ft | 274 kts | 235° |
| 2026-05-07 13:52 | 37.50711 | -5.43665 | 11179 ft | 277 kts | 235° |
| 2026-05-07 13:52 | 37.49611 | -5.45726 | 10353 ft | 291 kts | 235° |
| 2026-05-07 13:53 | 37.48408 | -5.47828 | 9552 ft | 301 kts | 228° |
| 2026-05-07 13:53 | 37.46772 | -5.49480 | 8656 ft | 307 kts | 205° |
| 2026-05-07 13:53 | 37.44723 | -5.50120 | 8041 ft | 302 kts | 182° |
| 2026-05-07 13:53 | 37.42671 | -5.49920 | 7624 ft | 292 kts | 168° |
| 2026-05-07 13:54 | 37.40799 | -5.49057 | 7213 ft | 284 kts | 150° |
| 2026-05-07 13:54 | 37.39368 | -5.47392 | 6712 ft | 282 kts | 125° |
| 2026-05-07 13:54 | 37.38655 | -5.45105 | 6138 ft | 284 kts | 99° |
| 2026-05-07 13:54 | 37.38813 | -5.42644 | 5570 ft | 285 kts | 72° |
| 2026-05-07 13:55 | 37.39809 | -5.40522 | 5122 ft | 280 kts | 45° |
| 2026-05-07 13:55 | 37.41403 | -5.39270 | 5006 ft | 266 kts | 17° |
| 2026-05-07 13:55 | 37.43183 | -5.39110 | 4941 ft | 253 kts | 347° |
| 2026-05-07 13:55 | 37.44728 | -5.40018 | 4867 ft | 244 kts | 317° |
| 2026-05-07 13:56 | 37.45698 | -5.41771 | 4797 ft | 250 kts | 287° |
| 2026-05-07 13:56 | 37.45958 | -5.43936 | 4769 ft | 252 kts | 270° |
| 2026-05-07 13:56 | 37.45977 | -5.46163 | 4695 ft | 256 kts | 269° |
| 2026-05-07 13:56 | 37.45984 | -5.48373 | 4578 ft | 256 kts | 269° |
| 2026-05-07 13:57 | 37.45969 | -5.50644 | 4392 ft | 255 kts | 263° |
| 2026-05-07 13:57 | 37.45437 | -5.52703 | 4293 ft | 244 kts | 240° |
| 2026-05-07 13:57 | 37.44621 | -5.54534 | 4213 ft | 236 kts | 239° |
| 2026-05-07 13:57 | 37.43802 | -5.56272 | 4062 ft | 232 kts | 238° |
| 2026-05-07 13:58 | 37.42956 | -5.57969 | 3951 ft | 226 kts | 237° |
| 2026-05-07 13:58 | 37.42164 | -5.59652 | 3810 ft | 220 kts | 246° |
| 2026-05-07 13:58 | 37.41868 | -5.61503 | 3617 ft | 215 kts | 265° |
| 2026-05-07 13:58 | 37.41859 | -5.63340 | 3524 ft | 202 kts | 268° |
| 2026-05-07 13:59 | 37.41866 | -5.65072 | 3370 ft | 194 kts | 268° |
| 2026-05-07 13:59 | 37.41865 | -5.66754 | 3217 ft | 191 kts | 268° |
| 2026-05-07 13:59 | 37.41855 | -5.68424 | 2997 ft | 191 kts | 269° |
| 2026-05-07 13:59 | 37.41853 | -5.70095 | 2740 ft | 192 kts | 269° |
| 2026-05-07 14:00 | 37.41848 | -5.71763 | 2503 ft | 189 kts | 268° |
| 2026-05-07 14:00 | 37.41840 | -5.73434 | 2263 ft | 191 kts | 267° |
| 2026-05-07 14:00 | 37.41838 | -5.75094 | 2006 ft | 189 kts | 267° |
| 2026-05-07 14:00 | 37.41838 | -5.76714 | 1754 ft | 186 kts | 266° |
| 2026-05-07 14:01 | 37.41829 | -5.78313 | 1562 ft | 181 kts | 267° |
| 2026-05-07 14:01 | 37.41826 | -5.79833 | 1369 ft | 160 kts | 266° |
| 2026-05-07 14:01 | 37.41823 | -5.81143 | 1155 ft | 145 kts | 266° |
| 2026-05-07 14:01 | 37.41817 | -5.82375 | 946 ft | 137 kts | 266° |
| 2026-05-07 14:02 | 37.41804 | -5.83568 | 701 ft | 139 kts | 266° |
| 2026-05-07 14:02 | 37.41816 | -5.84804 | 601 ft | 143 kts | 268° |
| 2026-05-07 14:02 | 37.41810 | -5.86053 | 388 ft | 143 kts | 265° |
| 2026-05-07 14:02 | 37.41805 | -5.87276 | 199 ft | 139 kts | 263° |
| 2026-05-07 14:03 | 37.41795 | -5.88445 | 119 ft | 122 kts | 268° |
| 2026-05-07 14:03 | 37.41795 | -5.89258 | 106 ft | 60 kts | 270° |
| 2026-05-07 14:03 | 37.41792 | -5.89640 | 103 ft | 43 kts | 268° |
| 2026-05-07 14:03 | 37.41887 | -5.89822 | 104 ft | 16 kts | 332° |
| 2026-05-07 14:04 | 37.41944 | -5.89855 | 101 ft | 6 kts | 336° |
| 2026-05-07 14:04 | 37.41991 | -5.89879 | 102 ft | 5 kts | 339° |
| 2026-05-07 14:04 | 37.42026 | -5.89896 | 103 ft | 7 kts | 338° |
| 2026-05-07 14:04 | 37.42068 | -5.89918 | 104 ft | 2 kts | 338° |
| 2026-05-07 14:05 | 37.42091 | -5.89927 | 103 ft | 5 kts | 347° |
| 2026-05-07 14:05 | 37.42136 | -5.89935 | 103 ft | 8 kts | 353° |
| 2026-05-07 14:05 | 37.42177 | -5.89948 | 102 ft | 6 kts | 343° |
| 2026-05-07 14:05 | 37.42202 | -5.89957 | 102 ft | 2 kts | 344° |
| 2026-05-07 14:06 | 37.42216 | -5.89962 | 101 ft | 2 kts | 344° |